Time;durP1;ratioP1;P1;durP2;ratioP2;P2;SDS_P1;SDS_P2;PMS_P1;PMS_P2;Temp;Humidity;BMP_temperature;BMP_pressure;BME280_temperature;BME280_humidity;BME280_pressure;Samples;Min_cycle;Max_cycle;Signal;HPM_P1;HPM_P2
2020/12/26 00:01:32;;;;;;;17.67;13.18;;;;;;;;;;5117451;28;20203;-60
2020/12/26 00:03:58;;;;;;;17.55;13.15;;;;;;;;;;5117172;28;20227;-60
2020/12/26 00:06:25;;;;;;;16.52;11.77;;;;;;;;;;5118088;28;20203;-61
2020/12/26 00:08:53;;;;;;;18.20;12.80;;;;;;;;;;5118530;28;20216;-59
2020/12/26 00:11:21;;;;;;;16.13;12.45;;;;;;;;;;5118278;28;20221;-60
2020/12/26 00:13:49;;;;;;;20.15;13.38;;;;;;;;;;5118347;28;20228;-60
2020/12/26 00:16:16;;;;;;;15.63;12.48;;;;;;;;;;5116148;28;20694;-61
2020/12/26 00:18:43;;;;;;;16.23;12.68;;;;;;;;;;5115543;28;20203;-60
2020/12/26 00:21:11;;;;;;;16.60;13.15;;;;;;;;;;5115800;28;20257;-60
2020/12/26 00:23:38;;;;;;;17.58;12.70;;;;;;;;;;5120673;28;20226;-60
2020/12/26 00:26:05;;;;;;;17.00;12.95;;;;;;;;;;5120154;27;20207;-61
2020/12/26 00:28:32;;;;;;;18.58;13.30;;;;;;;;;;5119113;28;20220;-60
2020/12/26 00:30:59;;;;;;;20.50;12.63;;;;;;;;;;5118744;28;20199;-59
2020/12/26 00:33:26;;;;;;;17.65;12.65;;;;;;;;;;5119413;28;20215;-61
2020/12/26 00:35:53;;;;;;;17.30;11.48;;;;;;;;;;5119525;28;20195;-60
2020/12/26 00:38:19;;;;;;;19.35;13.25;;;;;;;;;;5120390;28;20248;-59
2020/12/26 00:40:46;;;;;;;16.80;13.30;;;;;;;;;;5126125;28;20256;-61
2020/12/26 00:43:14;;;;;;;18.15;12.20;;;;;;;;;;5126741;28;20226;-61
2020/12/26 00:45:41;;;;;;;14.93;12.40;;;;;;;;;;5124631;28;20207;-61
2020/12/26 00:48:07;;;;;;;17.27;12.00;;;;;;;;;;5120506;27;20583;-60
2020/12/26 00:50:34;;;;;;;15.07;11.95;;;;;;;;;;5119390;28;20208;-61
2020/12/26 00:53:01;;;;;;;18.75;10.77;;;;;;;;;;5118870;28;20227;-61
2020/12/26 00:55:27;;;;;;;16.05;12.40;;;;;;;;;;5118345;28;20207;-61
2020/12/26 00:57:54;;;;;;;17.90;12.88;;;;;;;;;;5117915;27;20206;-59
2020/12/26 01:00:22;;;;;;;16.80;12.02;;;;;;;;;;5117935;27;20203;-60
2020/12/26 01:02:49;;;;;;;16.88;12.52;;;;;;;;;;5118441;28;20663;-60
2020/12/26 01:05:15;;;;;;;20.73;13.20;;;;;;;;;;5117677;28;20667;-61
2020/12/26 01:07:42;;;;;;;16.13;12.15;;;;;;;;;;5118232;28;20207;-60
2020/12/26 01:10:09;;;;;;;16.55;12.57;;;;;;;;;;5117631;28;20206;-61
2020/12/26 01:12:35;;;;;;;20.70;12.80;;;;;;;;;;5117572;28;20270;-61
2020/12/26 01:15:03;;;;;;;20.10;12.05;;;;;;;;;;5117635;28;20622;-61
2020/12/26 01:17:30;;;;;;;18.70;12.40;;;;;;;;;;5117166;28;20277;-60
2020/12/26 01:19:57;;;;;;;18.00;13.07;;;;;;;;;;5117247;28;20211;-60
2020/12/26 01:22:24;;;;;;;18.83;12.70;;;;;;;;;;5117280;27;20219;-60
2020/12/26 01:24:51;;;;;;;19.83;12.75;;;;;;;;;;5117573;28;20256;-61
2020/12/26 01:27:17;;;;;;;20.58;12.80;;;;;;;;;;5117248;28;20200;-60
2020/12/26 01:29:44;;;;;;;21.58;12.63;;;;;;;;;;5116846;28;20687;-60
2020/12/26 01:32:11;;;;;;;23.05;13.77;;;;;;;;;;5116979;28;20703;-60
2020/12/26 01:34:39;;;;;;;18.73;13.07;;;;;;;;;;5116287;28;20635;-61
2020/12/26 01:37:06;;;;;;;23.10;12.95;;;;;;;;;;5116872;28;20200;-61
2020/12/26 01:39:33;;;;;;;20.27;13.95;;;;;;;;;;5116779;28;20206;-60
2020/12/26 01:41:59;;;;;;;18.58;12.45;;;;;;;;;;5116663;28;20206;-61
2020/12/26 01:44:26;;;;;;;18.75;12.35;;;;;;;;;;5116341;28;20690;-60
2020/12/26 01:46:53;;;;;;;19.73;12.48;;;;;;;;;;5116604;28;20196;-60
2020/12/26 01:49:21;;;;;;;19.88;12.27;;;;;;;;;;5116397;28;20292;-61
2020/12/26 01:51:49;;;;;;;18.77;11.68;;;;;;;;;;5116441;28;20210;-61
2020/12/26 01:54:16;;;;;;;17.60;12.05;;;;;;;;;;5116468;28;20204;-60
2020/12/26 01:56:43;;;;;;;18.30;12.25;;;;;;;;;;5116306;28;20570;-61
2020/12/26 01:59:10;;;;;;;15.82;11.95;;;;;;;;;;5116450;28;20221;-60
2020/12/26 02:01:38;;;;;;;21.20;11.20;;;;;;;;;;5116516;28;20252;-61
2020/12/26 02:04:05;;;;;;;18.73;13.27;;;;;;;;;;5116246;28;20246;-61
2020/12/26 02:06:36;;;;;;;19.98;13.80;;;;;;;;;;5115940;28;20212;-60
2020/12/26 02:09:05;;;;;;;19.33;11.40;;;;;;;;;;5116080;28;20243;-61
2020/12/26 02:11:32;;;;;;;18.30;11.23;;;;;;;;;;5117067;28;20544;-60
2020/12/26 02:13:59;;;;;;;17.35;12.50;;;;;;;;;;5116307;28;20224;-60
2020/12/26 02:16:25;;;;;;;15.90;11.95;;;;;;;;;;5116424;28;20612;-61
2020/12/26 02:18:52;;;;;;;21.27;12.93;;;;;;;;;;5116078;28;20191;-61
2020/12/26 02:21:22;;;;;;;16.55;11.52;;;;;;;;;;5115979;28;20260;-61
2020/12/26 02:23:50;;;;;;;16.67;10.88;;;;;;;;;;5115733;28;20219;-61
2020/12/26 02:26:27;;;;;;;26.10;12.05;;;;;;;;;;5115690;28;20295;-61
2020/12/26 02:28:54;;;;;;;19.92;11.65;;;;;;;;;;5115857;28;20203;-61
2020/12/26 02:31:21;;;;;;;20.63;12.50;;;;;;;;;;5115813;28;20196;-62
2020/12/26 02:33:48;;;;;;;17.67;12.73;;;;;;;;;;5115731;28;20585;-60
2020/12/26 02:36:15;;;;;;;20.58;12.43;;;;;;;;;;5115853;28;20675;-60
2020/12/26 02:38:41;;;;;;;20.27;11.77;;;;;;;;;;5115669;28;20195;-60
2020/12/26 02:41:09;;;;;;;15.00;11.30;;;;;;;;;;5115700;28;20203;-60
2020/12/26 02:43:36;;;;;;;19.20;12.80;;;;;;;;;;5115475;28;20730;-60
2020/12/26 02:46:03;;;;;;;19.40;12.80;;;;;;;;;;5114947;28;20204;-60
2020/12/26 02:48:30;;;;;;;15.60;11.57;;;;;;;;;;5116360;28;20224;-61
2020/12/26 02:50:57;;;;;;;20.02;12.25;;;;;;;;;;5115380;28;20203;-60
2020/12/26 02:53:24;;;;;;;17.48;12.43;;;;;;;;;;5115247;28;20284;-60
2020/12/26 02:55:51;;;;;;;17.23;12.75;;;;;;;;;;5115086;28;20204;-60
2020/12/26 02:58:19;;;;;;;20.83;12.98;;;;;;;;;;5115406;28;20196;-60
2020/12/26 03:00:45;;;;;;;20.52;13.15;;;;;;;;;;5116792;28;20195;-61
2020/12/26 03:03:12;;;;;;;16.90;11.70;;;;;;;;;;5115014;28;20215;-61
2020/12/26 03:05:39;;;;;;;19.10;12.57;;;;;;;;;;5115264;28;20633;-61
2020/12/26 03:08:06;;;;;;;13.52;9.55;;;;;;;;;;5115091;28;20219;-61
2020/12/26 03:10:32;;;;;;;20.02;11.07;;;;;;;;;;5115003;28;20195;-61
2020/12/26 03:12:59;;;;;;;11.73;9.75;;;;;;;;;;5115078;28;20216;-61
2020/12/26 03:15:27;;;;;;;17.10;9.80;;;;;;;;;;5115961;28;20253;-61
2020/12/26 03:17:53;;;;;;;18.52;10.68;;;;;;;;;;5115594;28;20198;-62
2020/12/26 03:20:20;;;;;;;15.80;9.52;;;;;;;;;;5115893;28;20203;-60
2020/12/26 03:22:47;;;;;;;16.23;9.77;;;;;;;;;;5115304;28;20265;-61
2020/12/26 03:25:14;;;;;;;15.15;10.35;;;;;;;;;;5115828;28;20202;-59
2020/12/26 03:27:40;;;;;;;13.70;9.55;;;;;;;;;;5115733;28;20219;-60
2020/12/26 03:30:07;;;;;;;14.43;9.45;;;;;;;;;;5115431;28;20196;-61
2020/12/26 03:32:35;;;;;;;13.40;9.32;;;;;;;;;;5114907;28;20220;-61
2020/12/26 03:35:02;;;;;;;12.88;9.82;;;;;;;;;;5114929;28;20599;-61
2020/12/26 03:37:29;;;;;;;13.75;9.25;;;;;;;;;;5114591;28;20211;-59
2020/12/26 03:39:56;;;;;;;13.82;10.20;;;;;;;;;;5114832;28;20716;-60
2020/12/26 03:42:23;;;;;;;13.85;9.45;;;;;;;;;;5115254;28;20215;-59
2020/12/26 03:44:50;;;;;;;12.20;9.05;;;;;;;;;;5115170;28;20252;-61
2020/12/26 03:47:16;;;;;;;18.60;11.05;;;;;;;;;;5114706;28;20256;-61
2020/12/26 03:49:44;;;;;;;16.63;11.55;;;;;;;;;;5114936;28;20226;-60
2020/12/26 03:52:11;;;;;;;15.45;9.98;;;;;;;;;;5115745;28;20223;-61
2020/12/26 03:54:37;;;;;;;13.50;10.02;;;;;;;;;;5116457;28;20199;-60
2020/12/26 03:57:04;;;;;;;12.60;9.30;;;;;;;;;;5116473;28;20706;-61
2020/12/26 03:59:31;;;;;;;13.73;9.15;;;;;;;;;;5118366;28;20199;-60
2020/12/26 04:01:58;;;;;;;11.48;9.68;;;;;;;;;;5116295;28;20203;-60
2020/12/26 04:07:30;;;;;;;13.80;9.90;;;;;;;;;;5112606;27;20548;-61
2020/12/26 04:09:57;;;;;;;10.63;9.10;;;;;;;;;;5111407;28;20200;-60
2020/12/26 04:12:23;;;;;;;13.57;10.73;;;;;;;;;;5111677;28;20222;-61
2020/12/26 04:14:50;;;;;;;15.77;11.05;;;;;;;;;;5111402;28;20229;-61
2020/12/26 04:19:46;;;;;;;13.57;10.50;;;;;;;;;;5068029;22;20229;-55
2020/12/26 04:22:12;;;;;;;15.00;11.52;;;;;;;;;;5051147;28;20205;-56
2020/12/26 04:24:40;;;;;;;19.00;11.20;;;;;;;;;;5050882;28;20202;-55
2020/12/26 04:27:07;;;;;;;12.15;10.15;;;;;;;;;;5050482;28;20720;-55
2020/12/26 04:29:33;;;;;;;13.55;9.95;;;;;;;;;;5050662;28;20221;-56
2020/12/26 04:32:00;;;;;;;18.33;11.38;;;;;;;;;;5051079;28;20205;-55
2020/12/26 04:34:27;;;;;;;14.23;10.90;;;;;;;;;;5051408;28;20584;-55
2020/12/26 04:36:54;;;;;;;12.52;10.77;;;;;;;;;;5050357;28;20206;-55
2020/12/26 04:39:20;;;;;;;14.65;10.40;;;;;;;;;;5050040;28;20279;-55
2020/12/26 04:41:48;;;;;;;13.23;11.05;;;;;;;;;;5050428;28;20261;-55
2020/12/26 04:44:15;;;;;;;11.95;10.27;;;;;;;;;;5050317;28;20202;-55
2020/12/26 04:46:43;;;;;;;12.88;10.45;;;;;;;;;;5050111;28;20213;-55
2020/12/26 04:49:10;;;;;;;11.52;10.32;;;;;;;;;;5049890;28;20226;-55
2020/12/26 04:51:38;;;;;;;15.52;10.40;;;;;;;;;;5050121;28;20201;-55
2020/12/26 04:54:08;;;;;;;16.45;10.77;;;;;;;;;;5050094;28;20225;-55
2020/12/26 04:56:40;;;;;;;16.30;10.45;;;;;;;;;;5049990;28;20566;-55
2020/12/26 04:59:08;;;;;;;14.93;10.40;;;;;;;;;;5049970;28;20217;-55
2020/12/26 05:01:36;;;;;;;13.02;9.95;;;;;;;;;;5049856;28;20214;-55
2020/12/26 05:04:03;;;;;;;16.60;10.90;;;;;;;;;;5049788;28;20229;-55
2020/12/26 05:06:31;;;;;;;14.15;11.93;;;;;;;;;;5049679;28;20678;-55
2020/12/26 05:08:59;;;;;;;17.38;11.20;;;;;;;;;;5049888;28;20248;-55
2020/12/26 05:11:25;;;;;;;13.65;10.18;;;;;;;;;;5050075;28;20288;-55
2020/12/26 05:13:52;;;;;;;13.98;10.43;;;;;;;;;;5049676;28;20210;-55
2020/12/26 05:16:20;;;;;;;15.50;9.85;;;;;;;;;;5049456;28;20248;-55
2020/12/26 05:18:50;;;;;;;12.20;9.98;;;;;;;;;;5036352;28;20721;-55
2020/12/26 05:21:25;;;;;;;12.93;9.57;;;;;;;;;;5036033;28;20289;-54
2020/12/26 05:24:02;;;;;;;13.57;10.05;;;;;;;;;;5036351;28;20273;-55
2020/12/26 05:26:30;;;;;;;11.20;9.27;;;;;;;;;;5036268;28;20207;-55
2020/12/26 05:29:00;;;;;;;11.25;10.05;;;;;;;;;;5036019;28;20226;-55
2020/12/26 05:34:19;;;;;;;11.52;9.40;;;;;;;;;;5112302;27;20900;-55
2020/12/26 05:36:45;;;;;;;10.93;9.23;;;;;;;;;;5111301;28;20199;-54
2020/12/26 05:39:12;;;;;;;10.77;9.68;;;;;;;;;;5111647;28;20273;-55
2020/12/26 05:41:40;;;;;;;11.82;9.52;;;;;;;;;;5111298;28;20699;-55
2020/12/26 05:44:07;;;;;;;12.48;10.05;;;;;;;;;;5111127;28;20200;-56
2020/12/26 05:46:34;;;;;;;12.23;10.00;;;;;;;;;;5111790;28;20203;-55
2020/12/26 05:49:22;;;;;;;12.43;9.25;;;;;;;;;;5111277;28;20281;-55
2020/12/26 05:51:51;;;;;;;11.48;9.50;;;;;;;;;;5111515;28;20286;-55
2020/12/26 05:54:18;;;;;;;15.27;8.52;;;;;;;;;;5111173;28;20252;-55
2020/12/26 05:56:45;;;;;;;13.35;9.30;;;;;;;;;;5111268;28;20277;-55
2020/12/26 05:59:24;;;;;;;13.68;9.63;;;;;;;;;;5111642;28;20220;-55
2020/12/26 06:01:50;;;;;;;9.68;8.63;;;;;;;;;;5111571;28;20348;-55
2020/12/26 06:04:20;;;;;;;10.77;8.20;;;;;;;;;;5111649;28;20211;-55
2020/12/26 06:06:51;;;;;;;13.50;9.38;;;;;;;;;;5111959;28;20210;-54
2020/12/26 06:09:19;;;;;;;11.52;8.20;;;;;;;;;;5111750;28;20228;-55
2020/12/26 06:11:46;;;;;;;12.15;8.88;;;;;;;;;;5111252;28;20276;-55
2020/12/26 06:14:17;;;;;;;11.20;8.20;;;;;;;;;;5110887;28;20224;-55
2020/12/26 06:16:47;;;;;;;10.80;8.05;;;;;;;;;;5110605;28;20180;-55
2020/12/26 06:19:15;;;;;;;11.68;7.82;;;;;;;;;;5110482;28;20239;-55
2020/12/26 06:21:41;;;;;;;9.45;7.65;;;;;;;;;;5110858;28;20207;-55
2020/12/26 06:24:08;;;;;;;10.75;6.57;;;;;;;;;;5110725;28;20273;-55
2020/12/26 06:26:36;;;;;;;11.77;7.50;;;;;;;;;;5110566;28;20231;-55
2020/12/26 06:29:03;;;;;;;13.00;7.93;;;;;;;;;;5110082;28;20224;-55
2020/12/26 06:31:30;;;;;;;14.57;8.23;;;;;;;;;;5111263;28;20204;-55
2020/12/26 06:33:57;;;;;;;8.45;7.65;;;;;;;;;;5110005;28;20227;-55
2020/12/26 06:36:24;;;;;;;8.13;7.30;;;;;;;;;;5110281;28;20203;-55
2020/12/26 06:38:51;;;;;;;9.05;7.45;;;;;;;;;;5109771;28;20231;-55
2020/12/26 06:41:18;;;;;;;9.90;7.25;;;;;;;;;;5110239;28;20207;-55
2020/12/26 06:43:50;;;;;;;11.23;7.30;;;;;;;;;;5107413;28;20250;-55
2020/12/26 06:46:35;;;;;;;11.23;7.22;;;;;;;;;;5096561;28;20325;-55
2020/12/26 06:49:02;;;;;;;10.30;7.68;;;;;;;;;;5096515;28;20220;-55
2020/12/26 06:51:29;;;;;;;8.80;6.35;;;;;;;;;;5096595;28;20200;-55
2020/12/26 06:53:57;;;;;;;14.75;7.50;;;;;;;;;;5096864;28;20273;-55
2020/12/26 06:56:51;;;;;;;10.52;7.32;;;;;;;;;;5095956;28;20570;-55
2020/12/26 06:59:18;;;;;;;10.82;7.28;;;;;;;;;;5060052;28;20273;-55
2020/12/26 07:01:46;;;;;;;8.80;6.50;;;;;;;;;;5095809;28;20261;-55
2020/12/26 07:04:16;;;;;;;9.90;6.82;;;;;;;;;;5096758;28;20196;-55
2020/12/26 07:06:43;;;;;;;11.05;7.18;;;;;;;;;;5095759;28;20196;-56
2020/12/26 07:09:10;;;;;;;9.55;7.55;;;;;;;;;;5095970;28;20224;-55
2020/12/26 07:11:44;;;;;;;8.73;7.18;;;;;;;;;;5095630;28;20204;-55
2020/12/26 07:14:28;;;;;;;12.05;7.18;;;;;;;;;;5095565;28;20220;-55
2020/12/26 07:16:56;;;;;;;11.40;7.35;;;;;;;;;;5095402;28;20563;-55
2020/12/26 07:19:27;;;;;;;7.18;6.43;;;;;;;;;;5095638;28;20315;-55
2020/12/26 07:21:54;;;;;;;8.27;7.53;;;;;;;;;;5095754;28;20200;-55
2020/12/26 07:24:25;;;;;;;9.27;7.40;;;;;;;;;;5095733;28;20578;-55
2020/12/26 07:26:52;;;;;;;10.68;7.32;;;;;;;;;;5095626;28;20200;-55
2020/12/26 07:29:28;;;;;;;9.45;6.78;;;;;;;;;;5095468;28;20232;-55
2020/12/26 07:31:55;;;;;;;9.65;7.45;;;;;;;;;;5095219;28;20683;-56
2020/12/26 07:34:36;;;;;;;8.60;6.95;;;;;;;;;;5095556;28;20610;-55
2020/12/26 07:37:02;;;;;;;11.55;7.47;;;;;;;;;;5095273;28;20705;-56
2020/12/26 07:39:29;;;;;;;8.48;6.10;;;;;;;;;;5095624;28;20220;-55
2020/12/26 07:41:56;;;;;;;13.88;6.75;;;;;;;;;;5096114;28;20269;-54
2020/12/26 07:44:27;;;;;;;7.20;6.50;;;;;;;;;;5095298;28;20197;-55
2020/12/26 07:46:55;;;;;;;10.57;7.07;;;;;;;;;;5095128;28;20632;-55
2020/12/26 07:49:22;;;;;;;8.60;5.90;;;;;;;;;;5095297;28;20375;-55
2020/12/26 07:52:01;;;;;;;9.05;6.40;;;;;;;;;;5095402;28;20287;-55
2020/12/26 07:54:28;;;;;;;9.05;6.22;;;;;;;;;;5095326;28;20209;-55
2020/12/26 07:56:55;;;;;;;10.43;5.50;;;;;;;;;;5094239;28;20196;-55
2020/12/26 07:59:22;;;;;;;6.50;5.55;;;;;;;;;;5094882;28;20259;-56
2020/12/26 08:01:52;;;;;;;7.10;5.65;;;;;;;;;;5095316;28;20205;-55
2020/12/26 08:04:19;;;;;;;7.20;5.50;;;;;;;;;;5094962;28;20200;-55
2020/12/26 08:06:47;;;;;;;6.63;6.03;;;;;;;;;;5094899;28;20204;-55
2020/12/26 08:09:15;;;;;;;7.93;5.78;;;;;;;;;;5094867;28;20307;-54
2020/12/26 08:11:42;;;;;;;7.15;5.88;;;;;;;;;;5095043;28;20200;-55
2020/12/26 08:14:09;;;;;;;6.70;4.90;;;;;;;;;;5094976;28;20220;-56
2020/12/26 08:16:36;;;;;;;9.30;6.13;;;;;;;;;;5094988;28;20197;-56
2020/12/26 08:19:03;;;;;;;12.88;6.43;;;;;;;;;;5095089;28;20569;-55
2020/12/26 08:21:30;;;;;;;10.57;5.80;;;;;;;;;;5094986;28;20203;-56
2020/12/26 08:23:58;;;;;;;9.00;7.28;;;;;;;;;;5094748;28;20575;-56
2020/12/26 08:26:27;;;;;;;7.82;5.82;;;;;;;;;;5094967;28;20205;-56
2020/12/26 08:28:55;;;;;;;9.48;6.70;;;;;;;;;;5095051;28;20224;-56
2020/12/26 08:31:23;;;;;;;10.82;5.88;;;;;;;;;;5094614;28;20212;-55
2020/12/26 08:33:53;;;;;;;7.13;5.57;;;;;;;;;;5094372;28;20249;-56
2020/12/26 08:36:24;;;;;;;11.88;5.95;;;;;;;;;;5094600;28;20211;-56
2020/12/26 08:38:55;;;;;;;7.13;6.45;;;;;;;;;;5094329;28;20648;-56
2020/12/26 08:41:22;;;;;;;10.77;6.38;;;;;;;;;;5094496;28;20199;-56
2020/12/26 08:43:49;;;;;;;8.05;6.38;;;;;;;;;;5094310;28;20192;-56
2020/12/26 08:46:18;;;;;;;10.73;6.13;;;;;;;;;;5094393;28;20209;-56
2020/12/26 08:48:45;;;;;;;9.55;6.60;;;;;;;;;;5094396;28;20224;-55
2020/12/26 08:51:17;;;;;;;10.88;6.57;;;;;;;;;;5094676;28;20204;-56
2020/12/26 08:53:45;;;;;;;6.50;5.85;;;;;;;;;;5093955;28;20208;-55
2020/12/26 08:56:13;;;;;;;9.77;6.13;;;;;;;;;;5094158;28;20715;-56
2020/12/26 08:58:39;;;;;;;7.95;6.38;;;;;;;;;;5094126;28;20224;-56
2020/12/26 09:01:07;;;;;;;9.13;6.28;;;;;;;;;;5094072;28;20201;-55
2020/12/26 09:03:35;;;;;;;8.25;6.30;;;;;;;;;;5094042;28;20264;-55
2020/12/26 09:06:03;;;;;;;6.10;5.60;;;;;;;;;;5093844;28;20201;-55
2020/12/26 09:08:30;;;;;;;9.10;5.80;;;;;;;;;;5093309;28;20639;-55
2020/12/26 09:11:01;;;;;;;8.40;6.65;;;;;;;;;;5093775;28;20200;-56
2020/12/26 09:13:31;;;;;;;6.35;5.70;;;;;;;;;;5093771;28;20212;-55
2020/12/26 09:16:01;;;;;;;6.50;5.85;;;;;;;;;;5093380;28;20203;-56
2020/12/26 09:18:29;;;;;;;9.98;7.32;;;;;;;;;;5093625;28;20307;-55
2020/12/26 09:20:56;;;;;;;8.98;6.88;;;;;;;;;;5093419;28;20211;-54
2020/12/26 09:23:23;;;;;;;7.05;5.63;;;;;;;;;;5093463;28;20668;-54
2020/12/26 09:25:51;;;;;;;6.97;6.25;;;;;;;;;;5093760;28;20196;-55
2020/12/26 09:28:17;;;;;;;12.45;6.35;;;;;;;;;;5093636;28;20265;-54
2020/12/26 09:30:44;;;;;;;8.07;6.00;;;;;;;;;;5093615;28;20635;-54
2020/12/26 09:33:11;;;;;;;9.10;7.05;;;;;;;;;;5093368;28;20220;-57
2020/12/26 09:35:39;;;;;;;9.57;6.68;;;;;;;;;;5094566;28;20200;-56
2020/12/26 09:38:06;;;;;;;7.85;6.47;;;;;;;;;;5094041;28;20774;-56
2020/12/26 09:40:34;;;;;;;6.55;5.82;;;;;;;;;;5094252;28;20686;-56
2020/12/26 09:43:01;;;;;;;9.43;6.82;;;;;;;;;;5094270;28;20207;-56
2020/12/26 09:45:28;;;;;;;9.05;7.00;;;;;;;;;;5093236;28;20214;-56
2020/12/26 09:47:58;;;;;;;7.75;6.60;;;;;;;;;;5093563;28;20220;-56
2020/12/26 09:50:25;;;;;;;10.98;7.65;;;;;;;;;;5093764;28;20614;-56
2020/12/26 09:52:53;;;;;;;11.23;7.25;;;;;;;;;;5093810;28;20220;-56
2020/12/26 09:55:19;;;;;;;9.23;8.05;;;;;;;;;;5093561;28;20204;-56
2020/12/26 09:57:46;;;;;;;9.20;7.13;;;;;;;;;;5093733;28;20278;-57
2020/12/26 10:00:13;;;;;;;10.95;7.55;;;;;;;;;;5094431;28;20204;-56
2020/12/26 10:02:40;;;;;;;9.93;7.78;;;;;;;;;;5093896;28;20729;-56
2020/12/26 10:05:07;;;;;;;9.68;8.68;;;;;;;;;;5094237;28;20241;-56
2020/12/26 10:07:34;;;;;;;8.95;8.07;;;;;;;;;;5093715;28;20235;-56
2020/12/26 10:10:01;;;;;;;13.05;7.97;;;;;;;;;;5094233;28;20203;-57
2020/12/26 10:12:28;;;;;;;8.20;7.50;;;;;;;;;;5093791;28;20249;-56
2020/12/26 10:14:55;;;;;;;8.50;7.70;;;;;;;;;;5093784;28;20205;-56
2020/12/26 10:17:22;;;;;;;11.07;7.65;;;;;;;;;;5092742;28;20667;-56
2020/12/26 10:19:49;;;;;;;15.30;8.25;;;;;;;;;;5094462;28;20241;-56
2020/12/26 10:22:15;;;;;;;9.75;7.95;;;;;;;;;;5096904;28;20253;-56
2020/12/26 10:24:42;;;;;;;10.48;7.57;;;;;;;;;;5096992;28;20200;-56
2020/12/26 10:27:10;;;;;;;8.05;6.95;;;;;;;;;;5096527;28;20668;-57
2020/12/26 10:29:36;;;;;;;8.27;7.07;;;;;;;;;;5096882;28;20220;-56
2020/12/26 10:32:04;;;;;;;8.60;7.75;;;;;;;;;;5096693;28;20572;-57
2020/12/26 10:34:31;;;;;;;9.57;7.97;;;;;;;;;;5096525;28;20672;-57
2020/12/26 10:36:58;;;;;;;9.13;7.88;;;;;;;;;;5097554;28;20263;-57
2020/12/26 10:39:24;;;;;;;8.85;8.02;;;;;;;;;;5096683;28;20232;-57
2020/12/26 10:41:51;;;;;;;9.38;8.48;;;;;;;;;;5097098;28;20254;-56
2020/12/26 10:44:19;;;;;;;10.30;8.77;;;;;;;;;;5096468;28;20193;-57
2020/12/26 10:46:45;;;;;;;11.40;8.85;;;;;;;;;;5096472;28;20200;-57
2020/12/26 10:49:12;;;;;;;12.55;9.93;;;;;;;;;;5096381;28;20220;-56
2020/12/26 10:51:39;;;;;;;11.07;9.98;;;;;;;;;;5096078;28;20545;-56
2020/12/26 10:54:05;;;;;;;11.98;9.50;;;;;;;;;;5096011;28;20220;-56
2020/12/26 10:56:32;;;;;;;13.43;9.90;;;;;;;;;;5096061;28;20205;-56
2020/12/26 10:58:59;;;;;;;10.60;9.48;;;;;;;;;;5096134;28;20227;-56
2020/12/26 11:01:33;;;;;;;12.13;10.82;;;;;;;;;;5095902;28;20572;-56
2020/12/26 11:04:00;;;;;;;13.05;10.32;;;;;;;;;;5096133;28;20595;-56
2020/12/26 11:06:26;;;;;;;11.82;10.68;;;;;;;;;;5096110;28;20211;-57
2020/12/26 11:08:53;;;;;;;13.45;11.70;;;;;;;;;;5095715;28;20734;-56
2020/12/26 11:11:20;;;;;;;11.45;10.27;;;;;;;;;;5095787;28;20207;-57
2020/12/26 11:13:46;;;;;;;14.25;11.57;;;;;;;;;;5095865;28;20212;-57
2020/12/26 11:16:14;;;;;;;18.08;12.02;;;;;;;;;;5095913;28;20250;-56
2020/12/26 11:18:42;;;;;;;14.68;12.32;;;;;;;;;;5095470;28;20724;-56
2020/12/26 11:21:09;;;;;;;13.00;10.65;;;;;;;;;;5095931;28;20231;-56
2020/12/26 11:23:36;;;;;;;14.27;11.73;;;;;;;;;;5095723;28;20266;-56
2020/12/26 11:26:03;;;;;;;15.73;11.90;;;;;;;;;;5095421;28;20737;-57
2020/12/26 11:28:29;;;;;;;13.50;12.05;;;;;;;;;;5096221;28;20243;-56
2020/12/26 11:30:56;;;;;;;13.55;11.45;;;;;;;;;;5096150;28;20733;-56
2020/12/26 11:33:23;;;;;;;12.88;11.50;;;;;;;;;;5095743;28;20228;-57
2020/12/26 11:35:51;;;;;;;20.85;12.48;;;;;;;;;;5095700;28;20299;-56
2020/12/26 11:38:18;;;;;;;12.55;11.25;;;;;;;;;;5095279;28;20224;-57
2020/12/26 11:40:44;;;;;;;14.13;12.50;;;;;;;;;;5096174;28;20196;-57
2020/12/26 11:43:11;;;;;;;13.13;11.80;;;;;;;;;;5095609;28;20273;-56
2020/12/26 11:45:38;;;;;;;13.48;11.98;;;;;;;;;;5095448;28;20209;-56
2020/12/26 11:48:05;;;;;;;15.90;11.85;;;;;;;;;;5095266;28;20727;-55
2020/12/26 11:50:31;;;;;;;14.43;11.43;;;;;;;;;;5095727;28;20207;-56
2020/12/26 11:52:59;;;;;;;13.55;11.45;;;;;;;;;;5095737;28;20212;-56
2020/12/26 11:55:26;;;;;;;12.57;10.90;;;;;;;;;;5095191;28;20634;-55
2020/12/26 11:57:53;;;;;;;12.93;11.70;;;;;;;;;;5094749;28;20273;-55
2020/12/26 12:00:21;;;;;;;13.05;11.45;;;;;;;;;;5095122;28;20325;-55
2020/12/26 12:02:47;;;;;;;15.38;10.73;;;;;;;;;;5095007;28;20239;-56
2020/12/26 12:05:14;;;;;;;12.60;10.20;;;;;;;;;;5094624;28;20204;-55
2020/12/26 12:07:41;;;;;;;12.43;11.00;;;;;;;;;;5094908;28;20204;-55
2020/12/26 12:10:09;;;;;;;13.23;10.50;;;;;;;;;;5095038;28;20231;-55
2020/12/26 12:12:35;;;;;;;11.35;9.00;;;;;;;;;;5094893;28;20204;-57
2020/12/26 12:15:02;;;;;;;11.68;10.48;;;;;;;;;;5094963;28;20204;-57
2020/12/26 12:17:29;;;;;;;10.05;9.05;;;;;;;;;;5094809;28;20608;-54
2020/12/26 12:19:55;;;;;;;10.45;9.45;;;;;;;;;;5094395;28;20230;-55
2020/12/26 12:22:22;;;;;;;10.50;9.20;;;;;;;;;;5094898;28;20204;-55
2020/12/26 12:24:49;;;;;;;14.13;9.27;;;;;;;;;;5094666;28;20250;-55
2020/12/26 12:27:16;;;;;;;10.27;9.27;;;;;;;;;;5094941;28;20205;-58
2020/12/26 12:29:43;;;;;;;10.98;9.98;;;;;;;;;;5095634;28;20221;-57
2020/12/26 12:32:14;;;;;;;10.65;8.63;;;;;;;;;;5094563;28;20266;-57
2020/12/26 12:34:40;;;;;;;9.10;8.20;;;;;;;;;;5094504;28;20205;-58
2020/12/26 12:37:08;;;;;;;9.38;8.40;;;;;;;;;;5094263;28;20211;-56
2020/12/26 12:39:35;;;;;;;7.60;6.90;;;;;;;;;;5094299;28;20311;-56
2020/12/26 12:42:02;;;;;;;7.88;7.10;;;;;;;;;;5094011;28;20208;-57
2020/12/26 12:44:29;;;;;;;8.95;7.63;;;;;;;;;;5094233;28;20609;-56
2020/12/26 12:46:56;;;;;;;9.55;7.50;;;;;;;;;;5094203;28;20197;-57
2020/12/26 12:49:23;;;;;;;8.15;7.35;;;;;;;;;;5094141;28;20618;-57
2020/12/26 12:51:50;;;;;;;8.02;7.22;;;;;;;;;;5093885;28;20203;-56
2020/12/26 12:54:17;;;;;;;11.30;7.43;;;;;;;;;;5094101;28;20220;-57
2020/12/26 12:56:44;;;;;;;7.78;6.97;;;;;;;;;;5094092;28;20203;-56
2020/12/26 12:59:11;;;;;;;6.90;6.25;;;;;;;;;;5094067;28;20229;-56
2020/12/26 13:01:39;;;;;;;8.48;6.00;;;;;;;;;;5094199;28;20208;-56
2020/12/26 13:04:05;;;;;;;8.18;5.65;;;;;;;;;;5093854;28;20558;-56
2020/12/26 13:06:32;;;;;;;7.82;5.30;;;;;;;;;;5093610;28;20675;-56
2020/12/26 13:08:59;;;;;;;5.78;4.85;;;;;;;;;;5093689;28;20224;-57
2020/12/26 13:11:25;;;;;;;8.80;5.40;;;;;;;;;;5093726;28;20196;-57
2020/12/26 13:13:52;;;;;;;6.60;5.40;;;;;;;;;;5093615;28;20224;-57
2020/12/26 13:16:22;;;;;;;5.22;4.72;;;;;;;;;;5093971;28;20667;-56
2020/12/26 13:18:49;;;;;;;7.03;4.93;;;;;;;;;;5094092;28;20776;-56
2020/12/26 13:21:17;;;;;;;6.93;5.57;;;;;;;;;;5094353;28;20249;-55
2020/12/26 13:23:44;;;;;;;5.78;5.15;;;;;;;;;;5094256;28;20224;-56
2020/12/26 13:26:10;;;;;;;6.35;4.63;;;;;;;;;;5094088;28;20687;-56
2020/12/26 13:28:38;;;;;;;5.78;5.15;;;;;;;;;;5094206;28;20227;-56
2020/12/26 13:31:05;;;;;;;10.48;5.53;;;;;;;;;;5094328;28;20200;-56
2020/12/26 13:33:31;;;;;;;6.88;5.20;;;;;;;;;;5093447;28;20224;-56
2020/12/26 13:35:59;;;;;;;7.55;5.20;;;;;;;;;;5093953;28;20200;-56
2020/12/26 13:38:26;;;;;;;7.57;4.60;;;;;;;;;;5093901;28;20216;-56
2020/12/26 13:40:53;;;;;;;6.95;4.95;;;;;;;;;;5094367;28;20249;-56
2020/12/26 13:43:19;;;;;;;6.40;5.63;;;;;;;;;;5093398;28;20196;-56
2020/12/26 13:45:46;;;;;;;5.32;4.82;;;;;;;;;;5093625;28;20196;-56
2020/12/26 13:48:13;;;;;;;5.05;4.45;;;;;;;;;;5093754;28;20588;-57
2020/12/26 13:50:39;;;;;;;5.30;4.25;;;;;;;;;;5093167;28;20207;-57
2020/12/26 13:53:07;;;;;;;5.50;4.68;;;;;;;;;;5093235;28;20220;-57
2020/12/26 13:55:34;;;;;;;5.35;4.80;;;;;;;;;;5096036;28;20672;-57
2020/12/26 13:58:00;;;;;;;11.13;5.20;;;;;;;;;;5097034;28;20697;-57
2020/12/26 14:00:27;;;;;;;6.25;4.95;;;;;;;;;;5097303;28;20203;-57
2020/12/26 14:02:54;;;;;;;6.43;4.50;;;;;;;;;;5097198;28;20229;-57
2020/12/26 14:05:21;;;;;;;5.55;4.55;;;;;;;;;;5097365;28;20605;-57
2020/12/26 14:07:47;;;;;;;4.80;4.15;;;;;;;;;;5096964;28;20240;-57
2020/12/26 14:10:15;;;;;;;5.10;4.38;;;;;;;;;;5096912;28;20555;-57
2020/12/26 14:12:42;;;;;;;4.50;4.10;;;;;;;;;;5097093;28;20200;-56
2020/12/26 14:15:08;;;;;;;7.85;5.60;;;;;;;;;;5097063;28;20748;-55
2020/12/26 14:17:35;;;;;;;5.07;3.85;;;;;;;;;;5097192;28;20245;-55
2020/12/26 14:20:02;;;;;;;6.38;4.95;;;;;;;;;;5097001;28;20291;-54
2020/12/26 14:22:29;;;;;;;6.78;5.40;;;;;;;;;;5096782;28;20617;-54
2020/12/26 14:24:57;;;;;;;7.80;4.60;;;;;;;;;;5096912;28;20196;-55
2020/12/26 14:27:25;;;;;;;6.30;4.75;;;;;;;;;;5096196;28;20679;-54
2020/12/26 14:29:52;;;;;;;6.10;4.47;;;;;;;;;;5096572;28;20208;-55
2020/12/26 14:32:19;;;;;;;5.18;4.38;;;;;;;;;;5095871;28;20672;-55
2020/12/26 14:34:46;;;;;;;4.55;4.00;;;;;;;;;;5096551;28;20224;-55
2020/12/26 14:37:12;;;;;;;5.68;4.00;;;;;;;;;;5096298;28;20220;-54
2020/12/26 14:39:39;;;;;;;6.20;4.10;;;;;;;;;;5096272;28;20220;-55